Latest Weather Observations for Normanton

IDQ60801

Issued at 10:32 pm EST Wednesday 20 September 2017 (issued every 30 minutes, with the page automatically refreshed every 10 minutes)

About weather observations | Map of weather stations | Latest weather observations for QLD | Other Formats
Station Details ID: 029063 Name: NORMANTON AIRPORT Lat: -17.69 Lon: 141.07 Height: 18.42 m
Data from the previous 72 hours. | See also: Recent months at Normanton
Date/Time
EST
Temp
°C
App
Temp
°C
Dew
Point
°C
Rel
Hum
%
Delta-T
°C
Wind Press
QNH
hPa
Press
MSL
hPa
Rain since
9am
mm
Dir  Spd
km/h
Gust
km/h
Spd
kts
Gust
kts
20/10:30pm 24.8 25.6 17.3 63 4.7 WSW 9 11 5 6 1012.7 - 0.0
20/10:00pm 25.5 26.7 17.4 61 5.1 SW 7 11 4 6 1012.7 - 0.0
20/09:30pm 26.3 26.9 17.6 58 5.5 W 11 13 6 7 1012.6 - 0.0
20/09:00pm 27.1 27.4 17.0 54 6.3 W 11 15 6 8 1012.4 1012.2 0.0
20/08:30pm 28.0 27.9 16.0 48 7.4 W 11 15 6 8 1012.0 - 0.0
20/08:00pm 28.9 29.0 15.4 44 8.3 WNW 9 13 5 7 1011.6 - 0.0
20/07:30pm 30.9 29.1 5.3 20 13.5 S 4 7 2 4 1011.2 - 0.0
20/07:00pm 32.2 29.3 4.9 18 14.4 SSE 9 11 5 6 1010.8 - 0.0
20/06:30pm 33.6 30.6 4.3 16 15.4 S 9 11 5 6 1010.4 - 0.0
20/06:00pm 35.1 30.1 3.6 14 16.5 S 19 24 10 13 1010.1 1009.9 0.0
20/05:30pm 35.6 31.3 3.0 13 17.0 S 15 24 8 13 1009.9 - 0.0
20/05:00pm 36.1 30.5 3.3 13 17.2 SSE 22 48 12 26 1009.8 - 0.0
20/04:53pm 36.3 29.6 3.5 13 17.3 SSE 28 48 15 26 1009.7 - 0.0
20/04:30pm 36.1 30.9 3.3 13 17.2 S 20 32 11 17 1009.8 - 0.0
20/04:00pm 36.5 32.5 4.7 14 17.1 ESE 15 22 8 12 1009.8 - 0.0
20/03:30pm 36.6 32.4 5.8 15 16.8 SSW 17 28 9 15 1010.2 - 0.0
20/03:00pm 36.3 32.4 5.5 15 16.7 SE 15 24 8 13 1010.6 1010.4 0.0
20/02:30pm 36.3 31.7 5.5 15 16.7 S 19 26 10 14 1011.1 - 0.0
20/02:00pm 36.1 32.0 6.3 16 16.4 SSE 17 26 9 14 1011.7 - 0.0
20/01:30pm 35.3 32.8 8.2 19 15.3 SSE 11 19 6 10 1012.3 - 0.0
20/01:00pm 34.4 31.1 9.6 22 14.2 SE 17 26 9 14 1013.1 - 0.0
20/12:30pm 34.6 31.0 9.8 22 14.3 S 19 33 10 18 1013.6 - 0.0
20/12:00pm 33.3 30.4 12.9 29 12.2 SE 20 26 11 14 1014.2 1014.1 0.0
20/11:30am 32.9 32.4 15.0 34 11.1 E 11 22 6 12 1014.8 - 0.0
20/11:00am 31.6 31.0 14.7 36 10.4 ENE 11 17 6 9 1015.6 - 0.0
20/10:30am 30.7 30.6 15.9 40 9.2 E 11 19 6 10 1016.1 - 0.0
20/10:00am 30.1 29.4 16.5 44 8.5 E 15 22 8 12 1016.5 - 0.0
20/09:30am 29.1 28.5 16.6 46 7.8 E 15 22 8 12 1016.7 - 0.0
20/09:00am 27.4 26.4 16.7 52 6.6 E 17 22 9 12 1016.8 1016.6 0.0
20/08:30am 26.9 26.4 17.7 57 5.8 E 17 24 9 13 1016.8 - 0.0
20/08:00am 25.5 25.4 17.9 63 4.8 E 15 22 8 12 1016.7 - 0.0
20/07:30am 24.1 24.9 18.1 69 3.8 ESE 11 20 6 11 1016.3 - 0.0
20/07:00am 22.6 23.7 17.9 75 2.9 ESE 9 15 5 8 1015.9 - 0.0
20/06:30am 22.0 23.0 17.8 77 2.6 ESE 9 11 5 6 1015.5 - 0.0
20/06:00am 22.3 23.7 17.9 76 2.7 E 7 9 4 5 1015.1 1014.8 0.0
20/05:30am 22.3 23.7 17.9 76 2.7 E 7 9 4 5 1014.7 - 0.0
20/05:00am 22.4 23.9 18.0 76 2.7 E 7 9 4 5 1014.3 - 0.0
20/04:30am 22.8 24.4 18.3 76 2.8 ENE 7 11 4 6 1014.1 - 0.0
20/04:00am 22.9 24.5 18.2 75 2.9 ENE 7 11 4 6 1013.8 - 0.0
20/03:30am 23.0 24.6 18.3 75 2.9 ENE 7 11 4 6 1013.7 - 0.0
20/03:00am 23.8 25.2 18.7 73 3.2 NE 9 15 5 8 1013.8 1013.5 0.0
20/02:30am 23.9 25.4 19.0 74 3.1 NE 9 13 5 7 1013.8 - 0.0
20/02:00am 22.8 24.5 18.6 77 2.6 ENE 7 9 4 5 1013.8 - 0.0
20/01:30am 23.0 24.5 18.1 74 3.1 E 7 9 4 5 1013.9 - 0.0
20/01:00am 23.4 25.0 18.3 73 3.2 E 7 11 4 6 1013.9 - 0.0
20/12:30am 23.8 25.1 18.4 72 3.4 ENE 9 11 5 6 1014.1 - 0.0
20/12:00am 24.0 25.8 18.4 71 3.5 NW 6 11 3 6 1014.1 1013.8 0.0
 
Date/Time
EST
Temp
°C
App
Temp
°C
Dew
Point
°C
Rel
Hum
%
Delta-T
°C
Wind Press
QNH
hPa
Press
MSL
hPa
Rain since
9am
mm
Dir  Spd
km/h
Gust
km/h
Spd
kts
Gust
kts
19/11:30pm 24.7 26.4 18.6 69 3.9 NW 7 9 4 5 1013.9 - 0.0
19/11:00pm 25.0 26.3 18.4 66 4.2 W 9 11 5 6 1014.2 - 0.0
19/10:30pm 25.3 26.0 18.0 64 4.6 NNW 11 13 6 7 1014.3 - 0.0
19/10:00pm 26.0 27.1 17.9 61 5.1 NNW 9 13 5 7 1014.2 - 0.0
19/09:30pm 26.9 28.1 17.4 56 6.0 WNW 7 9 4 5 1014.1 - 0.0
19/09:00pm 27.6 28.1 17.5 54 6.4 WNW 11 17 6 9 1013.7 1013.5 0.0
19/08:30pm 28.1 28.9 17.3 52 6.8 W 9 15 5 8 1013.6 - 0.0
19/08:00pm 28.9 29.4 17.4 49 7.3 WNW 11 15 6 8 1013.3 - 0.0
19/07:30pm 30.1 30.8 16.1 42 8.7 N 7 15 4 8 1012.9 - 0.0
19/07:00pm 32.8 31.2 8.9 23 13.5 SSE 7 11 4 6 1012.6 - 0.0
19/06:30pm 34.0 32.0 8.6 21 14.3 SSE 9 13 5 7 1012.2 - 0.0
19/06:00pm 35.3 32.2 7.4 18 15.5 SE 13 17 7 9 1011.9 1011.7 0.0
19/05:30pm 36.1 32.0 8.0 18 15.8 SSE 19 22 10 12 1011.6 - 0.0
19/05:00pm 36.0 32.5 8.7 19 15.6 S 17 22 9 12 1011.3 - 0.0
19/04:30pm 36.4 33.9 8.3 18 15.9 SSE 11 20 6 11 1011.3 - 0.0
19/04:00pm 35.8 33.8 8.6 19 15.5 E 9 13 5 7 1011.4 - 0.0
19/03:30pm 35.9 31.8 7.9 18 15.8 S 19 26 10 14 1011.5 - 0.0
19/03:00pm 36.7 35.2 9.3 19 15.8 SE 7 28 4 15 1011.9 1011.8 0.0
19/02:30pm 35.8 32.4 9.3 20 15.2 ESE 17 26 9 14 1012.5 - 0.0
19/02:00pm 35.6 32.6 10.6 22 14.6 SE 17 32 9 17 1012.9 - 0.0
19/01:30pm 34.4 31.3 11.5 25 13.5 SSE 19 28 10 15 1013.5 - 0.0
19/01:00pm 35.4 33.5 11.7 23 14.1 ESE 13 22 7 12 1014.0 - 0.0
19/12:30pm 34.9 32.8 12.5 25 13.4 E 15 22 8 12 1014.6 - 0.0
19/12:00pm 33.6 31.9 13.6 29 12.1 SE 15 20 8 11 1015.3 1015.1 0.0
19/11:30am 33.5 33.2 15.5 34 11.2 ENE 11 26 6 14 1015.9 - 0.0
19/11:00am 32.5 33.1 16.8 39 10.0 ENE 9 20 5 11 1016.5 - 0.0
19/10:30am 31.6 31.8 16.7 40 9.4 ENE 11 24 6 13 1016.9 - 0.0
19/10:00am 30.9 30.8 16.9 43 8.8 ENE 13 22 7 12 1017.2 - 0.0
19/09:30am 29.8 29.6 16.6 45 8.3 NE 13 20 7 11 1017.5 - 0.0
19/09:00am 28.0 28.1 15.6 46 7.6 NE 9 15 5 8 1017.7 1017.5 0.0
19/08:30am 25.7 26.0 14.5 50 6.7 N 6 9 3 5 1017.6 - 0.0
19/08:00am 23.2 23.7 15.5 62 4.6 E 7 9 4 5 1017.4 - 0.0
19/07:30am 20.5 21.0 15.1 71 3.2 E 6 7 3 4 1017.0 - 0.0
19/07:00am 19.2 18.6 14.5 74 2.7 E 11 15 6 8 1016.7 - 0.0
19/06:30am 19.2 19.1 14.9 76 2.5 NE 9 11 5 6 1016.0 - 0.0
19/06:00am 19.2 18.7 14.9 76 2.5 E 11 13 6 7 1015.5 1015.3 0.0
19/05:30am 19.3 19.2 15.0 76 2.5 E 9 11 5 6 1015.2 - 0.0
19/05:00am 19.4 20.7 15.1 76 2.5 N 2 9 1 5 1015.0 - 0.0
19/04:30am 19.9 20.4 15.1 74 2.8 N 6 9 3 5 1014.4 - 0.0
19/04:00am 20.7 20.9 14.8 69 3.5 NNW 7 9 4 5 1014.4 - 0.0
19/03:30am 21.3 21.1 14.7 66 3.9 NNW 9 11 5 6 1014.4 - 0.0
19/03:00am 21.7 21.0 14.4 63 4.3 WNW 11 13 6 7 1014.5 1014.4 0.0
19/02:30am 22.5 22.4 14.9 62 4.5 NNE 9 13 5 7 1015.0 - 0.0
19/02:00am 22.3 22.1 13.6 58 5.0 NE 7 9 4 5 1015.1 - 0.0
19/01:30am 23.0 22.4 13.5 55 5.5 ENE 9 19 5 10 1015.4 - 0.0
19/01:00am 22.7 22.3 14.0 58 5.1 SW 9 11 5 6 1014.9 - 0.0
19/12:30am 22.9 22.4 13.9 57 5.3 SW 9 11 5 6 1015.2 - 0.0
19/12:00am 23.3 22.9 14.0 56 5.4 WSW 9 11 5 6 1015.4 1015.2 0.0
 
Date/Time
EST
Temp
°C
App
Temp
°C
Dew
Point
°C
Rel
Hum
%
Delta-T
°C
Wind Press
QNH
hPa
Press
MSL
hPa
Rain since
9am
mm
Dir  Spd
km/h
Gust
km/h
Spd
kts
Gust
kts
18/11:30pm 23.8 23.3 13.9 54 5.8 W 9 11 5 6 1015.4 - 0.0
18/11:00pm 24.2 23.7 13.7 52 6.1 W 9 13 5 7 1015.5 - 0.0
18/10:30pm 24.7 23.8 13.6 50 6.5 W 11 15 6 8 1015.4 - 0.0
18/10:00pm 25.2 24.1 13.1 47 7.0 WSW 11 15 6 8 1015.4 - 0.0
18/09:30pm 25.8 24.5 12.6 44 7.6 WSW 11 15 6 8 1015.2 - 0.0
18/09:00pm 26.4 25.0 12.1 41 8.2 W 11 13 6 7 1015.2 1014.9 0.0
18/08:30pm 27.0 25.8 11.5 38 8.9 W 9 13 5 7 1014.9 - 0.0
18/08:00pm 27.8 26.2 11.4 36 9.4 W 11 13 6 7 1014.6 - 0.0
18/07:30pm 28.7 27.0 11.3 34 10.0 W 11 15 6 8 1014.1 - 0.0
18/07:00pm 29.8 27.7 11.3 32 10.7 NW 13 15 7 8 1013.8 - 0.0
18/06:30pm 31.0 28.2 11.4 30 11.4 NW 17 22 9 12 1013.3 - 0.0
18/06:00pm 34.4 31.2 3.1 14 16.2 SSE 9 19 5 10 1013.0 1012.7 0.0
18/05:30pm 35.0 32.3 3.5 14 16.5 SE 7 13 4 7 1012.7 - 0.0
18/05:00pm 35.0 31.7 2.5 13 16.7 SE 9 19 5 10 1012.6 - 0.0
18/04:30pm 35.6 33.0 4.0 14 16.7 SSW 7 15 4 8 1012.5 - 0.0
18/04:00pm 36.0 34.0 4.3 14 16.9 NW 4 7 2 4 1012.7 - 0.0
18/03:30pm 36.0 32.7 4.3 14 16.9 SE 11 24 6 13 1013.0 - 0.0
18/03:00pm 34.6 31.2 4.2 15 16.0 SE 11 17 6 9 1013.3 1013.2 0.0
18/02:30pm 34.6 30.6 5.1 16 15.8 ESE 15 28 8 15 1013.7 - 0.0
18/02:00pm 34.3 31.6 5.8 17 15.4 NE 9 19 5 10 1014.1 - 0.0
18/01:30pm 35.1 32.2 6.4 17 15.7 E 11 20 6 11 1014.6 - 0.0
18/01:00pm 34.3 31.8 8.1 20 14.7 E 11 20 6 11 1015.1 - 0.0
18/12:30pm 32.8 30.7 8.3 22 13.7 ESE 9 20 5 11 1015.7 - 0.0
18/12:00pm 32.6 30.6 8.8 23 13.4 NE 9 19 5 10 1016.3 1016.2 0.0
18/11:30am 31.5 28.8 9.1 25 12.6 ENE 13 20 7 11 1017.0 - 0.0
18/11:00am 30.6 27.9 8.9 26 12.1 E 13 20 7 11 1017.5 - 0.0
18/10:30am 30.0 28.0 10.0 29 11.3 E 11 20 6 11 1017.8 - 0.0
18/10:00am 28.5 25.2 9.7 31 10.5 ENE 17 30 9 16 1017.9 - 0.0
18/09:30am 28.6 25.9 10.3 32 10.3 ENE 15 22 8 12 1018.0 - 0.0
18/09:00am 26.7 23.4 9.5 34 9.5 E 17 22 9 12 1018.1 1018.0 0.0
18/08:30am 25.9 22.9 9.3 35 9.1 ENE 15 22 8 12 1018.2 - 0.0
18/08:00am 23.9 22.0 9.1 39 8.0 E 9 15 5 8 1017.9 - 0.0
18/07:30am 21.9 20.0 9.1 44 6.8 E 9 13 5 7 1017.5 - 0.0
18/07:00am 20.6 18.6 8.6 46 6.3 E 9 13 5 7 1017.1 - 0.0
18/06:30am 19.4 17.4 8.7 50 5.6 ESE 9 11 5 6 1016.9 - 0.0
18/06:00am 19.4 17.5 9.0 51 5.5 ESE 9 13 5 7 1016.5 1016.3 0.0
18/05:30am 19.4 17.7 9.9 54 5.1 ESE 9 11 5 6 1016.0 - 0.0
18/05:00am 19.8 18.2 10.2 54 5.2 E 9 13 5 7 1015.5 - 0.0
18/04:30am 18.9 17.6 11.2 61 4.2 E 9 11 5 6 1015.2 - 0.0
18/04:00am 18.8 18.0 11.6 63 4.0 ENE 7 9 4 5 1014.9 - 0.0
18/03:30am 18.9 18.3 12.2 65 3.7 ENE 7 9 4 5 1014.8 - 0.0
18/03:00am 18.4 17.7 11.9 66 3.6 ENE 7 11 4 6 1014.9 1014.7 0.0
18/02:30am 18.7 17.6 12.0 65 3.7 E 9 11 5 6 1015.1 - 0.0
18/02:00am 18.9 17.4 11.9 64 3.9 E 11 19 6 10 1015.2 - 0.0
18/01:30am 19.7 18.8 12.7 64 3.9 ESE 9 15 5 8 1015.1 - 0.0
18/01:00am 21.3 21.5 14.7 66 3.9 SW 7 9 4 5 1015.0 - 0.0
18/12:30am 21.8 21.5 14.4 63 4.3 WSW 9 13 5 7 1015.3 - 0.0
18/12:00am 22.4 21.2 14.0 59 4.9 WSW 13 17 7 9 1015.7 1015.5 0.0
 
Date/Time
EST
Temp
°C
App
Temp
°C
Dew
Point
°C
Rel
Hum
%
Delta-T
°C
Wind Press
QNH
hPa
Press
MSL
hPa
Rain since
9am
mm
Dir  Spd
km/h
Gust
km/h
Spd
kts
Gust
kts
17/11:30pm 22.5 21.2 13.6 57 5.2 WSW 13 17 7 9 1015.5 - 0.0
17/11:00pm 22.9 21.0 13.1 54 5.6 WSW 15 19 8 10 1015.7 - 0.0

Other Formats:

Comma delimited format used in spreadsheet applications
http://www.bom.gov.au/fwo/IDQ60801/IDQ60801.94266.axf

JavaScript Object Notation format (JSON) in row-major order
http://www.bom.gov.au/fwo/IDQ60801/IDQ60801.94266.json